Time;durP1;ratioP1;P1;durP2;ratioP2;P2;SDS_P1;SDS_P2;PMS_P1;PMS_P2;Temp;Humidity;BMP_temperature;BMP_pressure;BME280_temperature;BME280_humidity;BME280_pressure;Samples;Min_cycle;Max_cycle;Signal;HPM_P1;HPM_P2
2022/11/17 00:01:43;;;;;;;22.25;15.05;;;8.80;99.90;;;;;;4941242;29;20050;-87
2022/11/17 00:04:09;;;;;;;24.80;15.07;;;9.00;99.90;;;;;;4910982;29;20054;-87
2022/11/17 00:06:34;;;;;;;19.58;13.55;;;8.80;99.90;;;;;;4925645;29;20122;-87
2022/11/17 00:09:00;;;;;;;21.17;14.70;;;9.90;99.90;;;;;;4899997;29;20087;-87
2022/11/17 00:14:31;;;;;;;20.48;13.15;;;8.80;99.90;;;;;;4884865;29;20043;-87
2022/11/17 00:16:56;;;;;;;16.77;11.10;;;8.90;99.90;;;;;;4913497;29;20104;-87
2022/11/17 00:22:05;;;;;;;23.83;15.10;;;8.80;99.90;;;;;;4929314;29;20102;-87
2022/11/17 00:24:31;;;;;;;21.40;12.80;;;8.90;99.90;;;;;;4903032;29;20047;-88
2022/11/17 00:27:03;;;;;;;20.08;11.30;;;8.90;99.90;;;;;;4907808;29;20067;-87
2022/11/17 00:29:29;;;;;;;19.33;11.30;;;8.90;99.90;;;;;;4904375;29;20035;-87
2022/11/17 00:34:39;;;;;;;22.60;13.82;;;8.90;99.90;;;;;;4915966;29;20048;-87
2022/11/17 00:37:06;;;;;;;21.77;12.98;;;8.90;99.90;;;;;;4901774;29;20040;-87
2022/11/17 00:39:32;;;;;;;19.25;13.25;;;9.00;99.90;;;;;;4902155;29;20037;-87
2022/11/17 00:41:58;;;;;;;19.63;12.88;;;9.00;99.90;;;;;;4916902;29;20164;-87
2022/11/17 00:44:25;;;;;;;19.10;13.23;;;9.00;99.90;;;;;;4916691;29;20105;-87
2022/11/17 00:46:51;;;;;;;19.75;12.80;;;9.00;99.90;;;;;;4914829;29;20047;-87
2022/11/17 00:49:18;;;;;;;17.10;12.05;;;9.00;99.90;;;;;;4899949;29;20054;-87
2022/11/17 00:51:44;;;;;;;19.10;13.27;;;9.00;99.90;;;;;;4929990;29;20055;-87
2022/11/17 00:54:12;;;;;;;18.92;12.00;;;9.20;99.90;;;;;;4899292;29;20100;-87
2022/11/17 00:56:38;;;;;;;19.38;12.57;;;9.10;99.90;;;;;;4913181;29;20039;-87
2022/11/17 00:59:04;;;;;;;13.60;10.25;;;9.10;99.90;;;;;;4914634;29;20036;-87
2022/11/17 01:01:30;;;;;;;24.08;11.43;;;9.10;99.90;;;;;;4898064;29;20066;-87
2022/11/17 01:04:03;;;;;;;15.32;10.82;;;9.10;99.90;;;;;;4882791;29;20041;-87
2022/11/17 01:06:38;;;;;;;17.02;11.02;;;9.10;99.90;;;;;;4916356;29;20047;-87
2022/11/17 01:09:14;;;;;;;16.83;11.45;;;9.10;99.90;;;;;;4915008;29;20091;-87
2022/11/17 01:11:40;;;;;;;;;;;9.20;99.90;;;;;;4914447;29;20039;-87
2022/11/17 01:14:06;;;;;;;16.30;11.65;;;9.10;99.90;;;;;;4913618;29;19961;-87
2022/11/17 01:16:32;;;;;;;18.35;11.43;;;9.40;99.90;;;;;;4912934;29;20068;-87
2022/11/17 01:19:00;;;;;;;18.55;11.35;;;9.20;99.90;;;;;;4915444;29;20051;-87
2022/11/17 01:21:27;;;;;;;15.63;9.73;;;9.30;99.90;;;;;;4912589;29;20448;-87
2022/11/17 01:23:54;;;;;;;17.08;10.65;;;9.20;99.90;;;;;;4915745;29;20498;-87
2022/11/17 01:26:23;;;;;;;18.00;11.27;;;9.20;99.90;;;;;;4897589;29;20392;-87
2022/11/17 01:28:49;;;;;;;14.23;9.15;;;9.30;99.90;;;;;;4930186;29;20039;-87
2022/11/17 01:31:36;;;;;;;20.00;10.57;;;9.30;99.90;;;;;;4930452;29;20140;-87
2022/11/17 01:34:03;;;;;;;18.10;10.20;;;9.30;99.90;;;;;;4914115;29;20097;-87
2022/11/17 01:39:19;;;;;;;16.13;9.88;;;9.30;99.90;;;;;;4926494;29;20377;-88
2022/11/17 01:41:45;;;;;;;20.05;11.25;;;9.30;99.90;;;;;;4920587;29;20551;-86
2022/11/17 01:44:48;;;;;;;19.33;11.27;;;9.20;99.90;;;;;;4880561;29;20050;-87
2022/11/17 01:47:22;;;;;;;16.33;10.38;;;9.20;99.90;;;;;;4911349;29;20059;-87
2022/11/17 01:49:52;;;;;;;14.57;10.20;;;9.20;99.90;;;;;;4912917;29;20049;-87
2022/11/17 01:52:18;;;;;;;17.67;11.75;;;9.20;99.90;;;;;;4912458;29;20044;-87
2022/11/17 01:54:46;;;;;;;18.58;10.35;;;9.10;99.90;;;;;;4894501;29;20078;-86
2022/11/17 01:57:20;;;;;;;17.58;10.90;;;9.10;99.90;;;;;;4927335;29;20074;-86
2022/11/17 01:59:50;;;;;;;16.83;10.90;;;9.10;99.90;;;;;;4926958;29;20046;-86
2022/11/17 02:02:16;;;;;;;15.13;9.90;;;9.10;99.90;;;;;;4923932;29;20516;-86
2022/11/17 02:05:17;;;;;;;16.88;11.05;;;9.10;99.90;;;;;;4909613;29;20055;-86
2022/11/17 02:07:45;;;;;;;17.58;11.52;;;9.10;99.90;;;;;;4935970;29;20055;-86
2022/11/17 02:10:11;;;;;;;16.75;9.70;;;9.00;99.90;;;;;;4910681;29;20050;-85
2022/11/17 02:12:37;;;;;;;23.45;12.05;;;10.00;99.90;;;;;;4920310;28;20404;-86
2022/11/17 02:15:04;;;;;;;18.85;11.38;;;9.20;99.90;;;;;;4936741;29;20039;-86
2022/11/17 02:17:38;;;;;;;15.52;9.65;;;9.00;99.90;;;;;;4913535;29;20047;-86
2022/11/17 02:20:12;;;;;;;17.40;11.77;;;9.00;99.90;;;;;;4929758;29;20042;-86
2022/11/17 02:22:40;;;;;;;16.63;9.88;;;9.00;99.90;;;;;;4928718;29;20094;-86
2022/11/17 02:25:37;;;;;;;17.05;8.70;;;9.00;99.90;;;;;;4935758;29;20090;-86
2022/11/17 02:28:15;;;;;;;;;;;9.00;99.90;;;;;;4929354;29;20054;-86
2022/11/17 02:31:02;;;;;;;20.92;11.20;;;8.90;99.90;;;;;;4935677;28;19929;-86
2022/11/17 02:33:59;;;;;;;22.83;12.88;;;8.90;99.90;;;;;;4930259;29;20043;-87
2022/11/17 02:36:52;;;;;;;18.85;11.43;;;8.90;99.90;;;;;;4936820;29;20051;-87
2022/11/17 02:39:40;;;;;;;17.80;10.45;;;8.90;99.90;;;;;;4944385;29;20058;-87
2022/11/17 02:44:02;;;;;;;17.42;10.65;;;8.90;99.90;;;;;;4944162;28;20211;-87
2022/11/17 02:45:23;;;;;;;17.67;10.60;;;8.90;99.90;;;;;;4953530;29;20051;-87
2022/11/17 02:47:54;;;;;;;18.75;10.52;;;8.90;99.90;;;;;;4953237;29;20050;-87
2022/11/17 02:50:25;;;;;;;21.80;12.65;;;8.90;99.90;;;;;;4953949;29;20051;-86
2022/11/17 02:52:52;;;;;;;19.63;13.73;;;8.90;99.90;;;;;;4936764;29;20050;-86
2022/11/17 02:55:18;;;;;;;21.02;12.52;;;8.90;99.90;;;;;;4921233;29;20041;-87
2022/11/17 02:57:48;;;;;;;11.98;7.07;;;8.90;99.90;;;;;;4935389;29;20420;-86
2022/11/17 03:00:17;;;;;;;18.27;9.82;;;8.90;99.90;;;;;;4937150;29;20118;-87
2022/11/17 03:03:05;;;;;;;14.20;8.70;;;8.90;99.90;;;;;;4937387;29;20043;-87
2022/11/17 03:05:53;;;;;;;19.95;11.20;;;8.90;99.90;;;;;;4929647;29;20102;-87
2022/11/17 03:08:35;;;;;;;19.77;11.50;;;8.90;99.90;;;;;;4951239;28;20110;-87
2022/11/17 03:11:05;;;;;;;16.00;9.00;;;8.90;99.90;;;;;;4926702;28;20047;-87
2022/11/17 03:13:59;;;;;;;16.65;10.43;;;9.00;99.90;;;;;;4934848;29;20905;-87
2022/11/17 03:16:36;;;;;;;17.67;9.82;;;9.00;99.90;;;;;;4934673;29;20039;-87
2022/11/17 03:19:10;;;;;;;17.65;11.55;;;9.00;99.90;;;;;;4935644;29;20039;-87
2022/11/17 03:21:39;;;;;;;15.40;9.40;;;9.00;99.90;;;;;;4935150;29;20039;-87
2022/11/17 03:24:37;;;;;;;14.00;9.32;;;8.90;99.90;;;;;;4936131;29;20036;-87
2022/11/17 03:27:09;;;;;;;16.92;10.60;;;9.00;99.90;;;;;;4929500;29;20488;-87
2022/11/17 03:29:40;;;;;;;14.70;9.55;;;9.30;99.90;;;;;;4948184;29;20075;-87
2022/11/17 03:32:08;;;;;;;15.57;10.63;;;9.00;99.90;;;;;;4929735;29;20468;-87
2022/11/17 03:34:40;;;;;;;16.60;11.00;;;8.90;99.90;;;;;;4962127;29;20039;-86
2022/11/17 03:37:09;;;;;;;16.00;10.18;;;9.10;99.90;;;;;;4964014;29;20044;-86
2022/11/17 03:39:45;;;;;;;16.17;9.45;;;9.10;99.90;;;;;;4941728;29;20035;-87
2022/11/17 03:42:27;;;;;;;13.88;8.43;;;9.00;99.90;;;;;;4936588;29;20126;-87
2022/11/17 03:45:18;;;;;;;14.25;9.25;;;9.00;99.90;;;;;;4938187;29;20054;-87
2022/11/17 03:47:45;;;;;;;14.80;8.80;;;9.00;99.90;;;;;;4951845;28;20057;-87
2022/11/17 03:50:24;;;;;;;14.90;8.35;;;9.60;99.90;;;;;;4954897;29;20051;-87
2022/11/17 03:52:51;;;;;;;13.23;7.88;;;9.00;99.90;;;;;;4940384;29;20039;-86
2022/11/17 03:55:16;;;;;;;15.63;9.40;;;9.00;99.90;;;;;;4940417;29;20039;-87
2022/11/17 03:57:59;;;;;;;14.68;8.27;;;9.00;99.90;;;;;;4925041;29;20059;-87
2022/11/17 04:00:24;;;;;;;13.75;9.40;;;9.00;99.90;;;;;;4940926;29;20375;-87
2022/11/17 04:02:54;;;;;;;18.50;9.95;;;9.00;99.90;;;;;;4940015;29;20043;-86
2022/11/17 04:05:20;;;;;;;13.85;9.18;;;9.00;99.90;;;;;;4954184;29;20122;-87
2022/11/17 04:07:47;;;;;;;14.65;7.78;;;9.00;99.90;;;;;;4922978;29;20142;-87
2022/11/17 04:10:21;;;;;;;15.52;8.75;;;9.10;99.90;;;;;;4938936;29;20046;-86
2022/11/17 04:18:17;;;;;;;11.93;8.00;;;9.10;99.90;;;;;;4941099;29;20571;-87
2022/11/17 04:20:43;;;;;;;11.20;7.22;;;9.20;99.90;;;;;;4938501;29;20452;-86
2022/11/17 04:23:13;;;;;;;9.68;6.78;;;9.10;99.90;;;;;;4938167;29;20046;-87
2022/11/17 04:28:37;;;;;;;10.82;7.65;;;9.10;99.90;;;;;;4953728;29;20043;-86
2022/11/17 04:31:03;;;;;;;13.52;7.78;;;9.20;99.90;;;;;;4938132;29;20043;-86
2022/11/17 04:33:28;;;;;;;11.40;6.85;;;9.10;99.90;;;;;;4937841;29;20047;-86
2022/11/17 04:35:54;;;;;;;17.67;7.43;;;9.10;99.90;;;;;;4938350;29;20054;-86
2022/11/17 04:38:20;;;;;;;10.95;6.75;;;9.20;99.90;;;;;;4922617;29;20043;-86
2022/11/17 04:43:29;;;;;;;10.45;7.22;;;9.20;99.90;;;;;;4954981;29;20062;-86
2022/11/17 04:45:59;;;;;;;10.23;6.43;;;9.20;99.90;;;;;;4939376;29;20047;-86
2022/11/17 04:48:25;;;;;;;12.65;6.75;;;9.20;99.90;;;;;;4921693;29;20043;-85
2022/11/17 04:50:55;;;;;;;8.57;6.18;;;9.30;99.90;;;;;;4938876;29;20058;-85
2022/11/17 04:53:22;;;;;;;11.75;7.57;;;9.20;99.90;;;;;;4922616;29;20388;-85
2022/11/17 04:55:48;;;;;;;10.65;6.57;;;9.30;99.90;;;;;;4939148;29;20404;-85
2022/11/17 04:58:13;;;;;;;10.90;6.85;;;10.00;99.90;;;;;;4938603;29;20051;-85
2022/11/17 05:00:39;;;;;;;12.18;7.10;;;9.20;99.90;;;;;;4921042;29;20047;-85
2022/11/17 05:03:05;;;;;;;9.13;6.60;;;9.20;99.90;;;;;;4938056;29;20046;-85
2022/11/17 05:05:31;;;;;;;10.02;6.63;;;9.20;99.90;;;;;;4937894;29;20488;-85
2022/11/17 05:07:57;;;;;;;10.80;6.35;;;9.20;99.90;;;;;;4928779;29;20618;-86
2022/11/17 05:13:26;;;;;;;9.90;6.65;;;9.10;99.90;;;;;;4931635;29;20051;-86
2022/11/17 05:18:42;;;;;;;10.13;6.85;;;9.10;99.90;;;;;;4940329;29;20114;-85
2022/11/17 05:21:10;;;;;;;11.18;7.13;;;9.00;99.90;;;;;;4921286;29;20043;-86
2022/11/17 05:23:55;;;;;;;10.05;6.65;;;9.00;99.90;;;;;;4913999;29;20451;-85
2022/11/17 05:26:32;;;;;;;9.95;6.63;;;9.10;99.90;;;;;;4954331;29;20039;-85
2022/11/17 05:28:59;;;;;;;11.05;7.82;;;9.20;99.90;;;;;;4938292;29;20077;-85
2022/11/17 05:31:26;;;;;;;11.73;7.15;;;9.00;99.90;;;;;;4955319;29;20058;-85
2022/11/17 05:33:53;;;;;;;12.57;7.53;;;9.00;99.90;;;;;;4936820;29;20082;-85
2022/11/17 05:36:19;;;;;;;10.82;7.70;;;9.00;99.90;;;;;;4952842;29;20051;-85
2022/11/17 05:38:46;;;;;;;12.52;8.02;;;9.00;99.90;;;;;;4935898;29;20037;-85
2022/11/17 05:41:13;;;;;;;10.27;7.00;;;8.90;99.90;;;;;;4936817;29;20117;-85
2022/11/17 05:43:39;;;;;;;12.00;6.82;;;8.90;99.90;;;;;;4921128;29;20043;-85
2022/11/17 05:46:04;;;;;;;9.98;5.85;;;9.00;99.90;;;;;;4938355;29;20043;-85
2022/11/17 05:48:32;;;;;;;11.15;7.00;;;8.90;99.90;;;;;;4936563;29;20408;-85
2022/11/17 05:50:59;;;;;;;9.48;6.30;;;8.90;99.90;;;;;;4921257;29;20047;-85
2022/11/17 05:53:25;;;;;;;8.27;6.22;;;8.90;99.90;;;;;;4936335;28;20205;-85
2022/11/17 05:56:17;;;;;;;9.05;6.75;;;8.90;99.90;;;;;;4936421;29;20465;-84
2022/11/17 05:58:49;;;;;;;10.65;6.90;;;8.90;99.90;;;;;;4937083;29;20090;-85
2022/11/17 06:01:17;;;;;;;9.43;6.57;;;8.90;99.90;;;;;;4951903;28;20043;-85
2022/11/17 06:03:48;;;;;;;8.45;6.60;;;9.20;99.90;;;;;;4951465;29;20121;-84
2022/11/17 06:06:14;;;;;;;8.55;6.18;;;8.80;99.90;;;;;;4936159;29;20051;-85
2022/11/17 06:08:41;;;;;;;9.77;6.22;;;8.70;99.90;;;;;;4936595;29;20118;-85
2022/11/17 06:11:06;;;;;;;8.02;5.68;;;8.80;99.90;;;;;;4920948;29;20484;-85
2022/11/17 06:13:32;;;;;;;9.73;6.88;;;8.80;99.90;;;;;;4922126;29;20045;-85
2022/11/17 06:16:03;;;;;;;10.35;7.22;;;8.70;99.90;;;;;;4922420;29;20114;-85
2022/11/17 06:18:49;;;;;;;7.07;5.45;;;8.70;99.90;;;;;;4936855;29;20496;-85
2022/11/17 06:21:19;;;;;;;8.90;6.53;;;8.70;99.90;;;;;;4938195;29;20082;-85
2022/11/17 06:23:47;;;;;;;9.77;7.07;;;8.70;99.90;;;;;;4937850;29;20070;-85
2022/11/17 06:26:16;;;;;;;7.22;5.75;;;8.60;99.90;;;;;;4939012;29;20377;-85
2022/11/17 06:28:45;;;;;;;8.68;6.70;;;8.60;99.90;;;;;;4938422;29;20490;-85
2022/11/17 06:31:12;;;;;;;8.38;6.45;;;8.60;99.90;;;;;;4937193;29;20051;-84
2022/11/17 06:33:39;;;;;;;8.73;7.55;;;8.60;99.90;;;;;;4923143;29;20047;-84
2022/11/17 06:36:06;;;;;;;8.35;6.90;;;8.60;99.90;;;;;;4922854;29;20043;-85
2022/11/17 06:38:34;;;;;;;9.95;6.68;;;8.60;99.90;;;;;;4914876;29;20047;-85
2022/11/17 06:41:03;;;;;;;8.27;6.40;;;8.60;99.90;;;;;;4922168;29;20035;-84
2022/11/17 06:43:31;;;;;;;9.63;6.57;;;8.60;99.90;;;;;;4938354;29;20369;-85
2022/11/17 06:46:02;;;;;;;7.47;6.10;;;8.60;99.90;;;;;;4921641;29;20054;-84
2022/11/17 06:48:29;;;;;;;8.65;6.95;;;8.60;99.90;;;;;;4938157;29;20500;-85
2022/11/17 06:50:55;;;;;;;9.13;6.47;;;8.60;99.90;;;;;;4938406;29;20043;-85
2022/11/17 06:53:25;;;;;;;8.75;7.03;;;8.60;99.90;;;;;;4921976;29;20050;-83
2022/11/17 06:56:19;;;;;;;9.40;7.22;;;8.30;99.90;;;;;;4939012;29;20070;-84
2022/11/17 06:58:45;;;;;;;10.93;8.20;;;8.60;99.90;;;;;;4942251;29;20051;-85
2022/11/17 07:01:13;;;;;;;10.57;7.05;;;8.60;99.90;;;;;;4924146;29;20066;-84
2022/11/17 07:03:40;;;;;;;12.45;7.25;;;8.70;99.90;;;;;;4914055;29;20109;-84
2022/11/17 07:06:08;;;;;;;11.77;7.35;;;8.70;99.90;;;;;;4940673;29;20098;-84
2022/11/17 07:08:34;;;;;;;10.50;7.20;;;8.70;99.90;;;;;;4940642;29;20055;-85
2022/11/17 07:11:05;;;;;;;9.90;7.68;;;8.70;99.90;;;;;;4927576;29;20082;-84
2022/11/17 07:13:32;;;;;;;11.77;7.00;;;8.70;99.90;;;;;;4932902;29;20408;-84
2022/11/17 07:16:08;;;;;;;11.00;8.77;;;9.40;99.90;;;;;;4952541;29;20105;-85
2022/11/17 07:18:34;;;;;;;10.57;7.65;;;8.70;99.90;;;;;;4936469;29;20484;-84
2022/11/17 07:21:05;;;;;;;9.18;5.57;;;8.70;99.90;;;;;;4952704;29;20043;-84
2022/11/17 07:23:32;;;;;;;11.10;7.53;;;8.70;99.90;;;;;;4938263;29;20043;-84
2022/11/17 07:25:58;;;;;;;10.48;7.70;;;8.70;99.90;;;;;;4955481;29;20047;-84
2022/11/17 07:28:24;;;;;;;13.38;7.72;;;8.70;99.90;;;;;;4939528;29;20054;-84
2022/11/17 07:30:50;;;;;;;10.38;7.72;;;8.70;99.90;;;;;;4948004;29;20051;-82
2022/11/17 07:33:16;;;;;;;9.52;7.55;;;8.70;99.90;;;;;;4936737;29;20126;-83
2022/11/17 07:35:42;;;;;;;7.53;5.78;;;8.70;99.90;;;;;;4938384;29;20201;-85
2022/11/17 07:38:08;;;;;;;9.93;7.07;;;8.80;99.90;;;;;;4944897;29;20051;-85
2022/11/17 07:40:34;;;;;;;10.63;7.28;;;8.80;99.90;;;;;;4954846;29;20043;-85
2022/11/17 07:43:00;;;;;;;10.90;6.85;;;8.70;99.90;;;;;;4923093;29;20047;-84
2022/11/17 07:45:27;;;;;;;10.80;8.25;;;8.70;99.90;;;;;;4922591;29;20054;-84
2022/11/17 07:48:00;;;;;;;10.90;8.43;;;8.80;99.90;;;;;;4962942;28;20130;-85
2022/11/17 07:50:26;;;;;;;10.95;7.85;;;8.70;99.90;;;;;;4940652;29;20047;-85
2022/11/17 07:52:54;;;;;;;11.07;7.47;;;8.70;99.90;;;;;;4938564;29;20082;-84
2022/11/17 07:55:21;;;;;;;14.20;9.73;;;8.90;99.90;;;;;;4931689;29;20042;-84
2022/11/17 07:57:56;;;;;;;9.40;7.53;;;8.80;99.90;;;;;;4949412;29;20380;-83
2022/11/17 08:00:23;;;;;;;12.00;7.60;;;8.80;99.90;;;;;;4958895;29;20039;-85
2022/11/17 08:02:48;;;;;;;11.00;7.70;;;8.70;99.90;;;;;;4922635;29;20047;-84
2022/11/17 08:05:16;;;;;;;8.73;5.97;;;8.80;99.90;;;;;;4939009;29;20098;-84
2022/11/17 08:07:45;;;;;;;7.80;6.20;;;8.80;99.90;;;;;;4954369;29;20067;-83
2022/11/17 08:10:12;;;;;;;9.45;6.38;;;8.70;99.90;;;;;;4923028;29;20059;-84
2022/11/17 08:12:38;;;;;;;8.32;7.10;;;8.70;99.90;;;;;;4939690;29;20058;-85
2022/11/17 08:15:04;;;;;;;10.40;7.72;;;8.70;99.90;;;;;;4938140;29;20039;-85
2022/11/17 08:17:30;;;;;;;10.27;7.07;;;8.70;99.90;;;;;;4938549;29;20071;-85
2022/11/17 08:19:56;;;;;;;12.13;8.40;;;8.70;99.90;;;;;;4937923;29;20039;-84
2022/11/17 08:22:22;;;;;;;11.88;7.97;;;8.70;99.90;;;;;;4923821;29;20408;-85
2022/11/17 08:24:48;;;;;;;10.50;7.15;;;8.70;99.90;;;;;;4940303;29;20377;-84
2022/11/17 08:27:13;;;;;;;11.02;8.25;;;8.70;99.90;;;;;;4939624;28;20047;-84
2022/11/17 08:29:39;;;;;;;10.95;7.15;;;8.80;99.90;;;;;;4930049;29;20043;-83
2022/11/17 08:32:05;;;;;;;11.00;7.35;;;8.80;99.90;;;;;;4938325;29;20126;-83
2022/11/17 08:34:31;;;;;;;8.98;6.65;;;8.80;99.90;;;;;;4921935;29;20047;-83
2022/11/17 08:36:57;;;;;;;8.63;6.22;;;8.80;99.90;;;;;;4937944;29;20130;-82
2022/11/17 08:39:22;;;;;;;9.75;7.28;;;8.80;99.90;;;;;;4938559;29;20130;-83
2022/11/17 08:41:50;;;;;;;9.35;6.15;;;9.10;99.90;;;;;;4922862;29;20050;-82
2022/11/17 08:44:16;;;;;;;10.07;6.35;;;9.90;99.90;;;;;;4938222;29;20122;-82
2022/11/17 08:46:41;;;;;;;10.57;7.32;;;9.00;99.90;;;;;;4922272;29;20172;-83
2022/11/17 08:49:07;;;;;;;8.68;6.43;;;9.00;99.90;;;;;;4937605;29;20047;-82
2022/11/17 08:51:33;;;;;;;10.50;6.80;;;9.10;99.90;;;;;;4921948;29;20097;-82
2022/11/17 08:53:59;;;;;;;9.90;7.35;;;9.20;99.90;;;;;;4938211;29;20063;-83
2022/11/17 08:56:24;;;;;;;7.85;5.80;;;9.20;99.90;;;;;;4922346;29;20083;-83
2022/11/17 08:58:50;;;;;;;7.80;5.70;;;9.50;99.90;;;;;;4938124;29;20050;-83
2022/11/17 09:01:17;;;;;;;11.88;6.47;;;9.10;99.90;;;;;;4938263;29;20592;-83
2022/11/17 09:03:44;;;;;;;11.25;6.72;;;9.20;99.90;;;;;;4923535;29;20058;-83
2022/11/17 09:06:12;;;;;;;11.07;7.25;;;9.20;99.90;;;;;;4921614;28;20043;-83
2022/11/17 09:08:38;;;;;;;7.78;6.10;;;9.20;99.90;;;;;;4951936;28;20069;-83
2022/11/17 09:11:05;;;;;;;10.07;6.88;;;9.30;99.90;;;;;;4936522;29;20051;-83
2022/11/17 09:13:31;;;;;;;7.53;6.00;;;9.30;99.90;;;;;;4936827;29;20511;-84
2022/11/17 09:16:04;;;;;;;10.93;7.20;;;9.20;99.90;;;;;;4915277;29;20035;-84
2022/11/17 09:18:30;;;;;;;9.18;6.28;;;9.20;99.90;;;;;;4930874;29;20039;-84
2022/11/17 09:21:00;;;;;;;10.43;6.25;;;9.80;99.90;;;;;;4953022;29;20495;-84
2022/11/17 09:23:27;;;;;;;7.63;6.18;;;9.30;99.90;;;;;;4935494;28;20578;-84
2022/11/17 09:25:52;;;;;;;9.32;5.75;;;9.30;99.90;;;;;;4936106;29;20131;-84
2022/11/17 09:28:18;;;;;;;8.73;6.43;;;9.30;99.90;;;;;;4938662;29;20118;-84
2022/11/17 09:30:44;;;;;;;10.82;6.65;;;9.30;99.90;;;;;;4937441;28;20047;-84
2022/11/17 09:33:09;;;;;;;7.85;6.10;;;9.40;99.90;;;;;;4920205;29;20044;-84
2022/11/17 09:35:35;;;;;;;8.25;5.57;;;9.30;99.90;;;;;;4922373;29;20054;-84
2022/11/17 09:38:01;;;;;;;10.38;6.60;;;9.40;99.90;;;;;;4921013;29;20487;-84
2022/11/17 09:40:27;;;;;;;7.95;5.75;;;9.40;99.90;;;;;;4936900;29;20058;-85
2022/11/17 09:42:53;;;;;;;7.95;5.70;;;9.40;99.90;;;;;;4920909;29;20046;-84
2022/11/17 09:45:32;;;;;;;8.48;5.95;;;9.40;99.90;;;;;;4937458;28;20046;-83
2022/11/17 09:48:09;;;;;;;7.32;5.32;;;9.40;99.90;;;;;;4954280;29;20395;-84
2022/11/17 09:50:38;;;;;;;;;;;9.40;99.90;;;;;;4952193;28;20047;-84
2022/11/17 09:53:41;;;;;;;7.15;5.00;;;9.40;99.90;;;;;;4945599;29;20001;-84
2022/11/17 09:56:08;;;;;;;7.57;5.25;;;9.40;99.90;;;;;;4953634;29;20051;-83
2022/11/17 09:59:03;;;;;;;7.55;4.85;;;9.60;99.90;;;;;;4952700;28;20534;-84
2022/11/17 10:01:30;;;;;;;7.70;5.55;;;9.50;99.90;;;;;;4952446;29;20039;-84
2022/11/17 10:03:58;;;;;;;7.07;5.65;;;9.50;99.90;;;;;;4938580;29;20166;-84
2022/11/17 10:06:27;;;;;;;7.78;5.53;;;9.50;99.90;;;;;;4953193;29;20125;-84
2022/11/17 10:09:28;;;;;;;7.78;5.50;;;9.50;99.90;;;;;;4936335;29;20063;-84
2022/11/17 10:12:06;;;;;;;9.57;5.65;;;9.50;99.90;;;;;;4928252;29;20542;-84
2022/11/17 10:14:33;;;;;;;7.40;5.10;;;9.50;99.90;;;;;;4952399;29;20449;-84
2022/11/17 10:16:59;;;;;;;7.95;4.97;;;9.50;99.90;;;;;;4936474;29;20098;-84
2022/11/17 10:19:30;;;;;;;6.72;4.95;;;9.60;99.90;;;;;;4920618;29;20043;-84
2022/11/17 10:22:22;;;;;;;6.32;5.15;;;9.70;99.90;;;;;;4936649;29;20392;-84
2022/11/17 10:24:53;;;;;;;8.82;5.28;;;9.70;99.90;;;;;;4938044;29;20477;-84
2022/11/17 10:27:24;;;;;;;6.35;4.78;;;9.70;99.90;;;;;;4937150;29;20043;-84
2022/11/17 10:29:59;;;;;;;7.78;4.38;;;9.80;99.90;;;;;;4963960;29;20415;-83
2022/11/17 10:32:27;;;;;;;5.40;4.22;;;9.90;99.90;;;;;;4949339;29;20051;-83
2022/11/17 10:34:53;;;;;;;7.43;3.78;;;9.90;99.90;;;;;;4937124;29;20042;-83
2022/11/17 10:37:29;;;;;;;6.75;4.22;;;9.90;99.90;;;;;;4954745;29;20122;-84
2022/11/17 10:40:35;;;;;;;8.30;4.32;;;10.00;99.90;;;;;;4935779;29;20467;-83
2022/11/17 10:43:01;;;;;;;4.28;2.67;;;10.10;99.90;;;;;;4942435;29;20106;-83
2022/11/17 10:45:27;;;;;;;4.47;2.88;;;10.10;99.90;;;;;;4937001;29;20126;-83
2022/11/17 10:48:08;;;;;;;4.85;2.67;;;10.20;99.90;;;;;;4920209;29;20530;-84
2022/11/17 10:50:34;;;;;;;4.65;1.65;;;10.20;99.90;;;;;;4943250;29;20047;-84
2022/11/17 10:53:24;;;;;;;6.32;2.00;;;10.20;99.90;;;;;;4935248;29;20070;-83
2022/11/17 10:55:58;;;;;;;5.43;1.33;;;10.30;99.90;;;;;;4912100;29;20035;-84
2022/11/17 10:58:27;;;;;;;3.72;1.10;;;10.30;99.90;;;;;;4937630;29;20046;-83
2022/11/17 11:00:58;;;;;;;3.97;1.50;;;10.30;99.90;;;;;;4956006;29;20050;-83
2022/11/17 11:03:33;;;;;;;3.63;1.40;;;10.40;99.90;;;;;;4940196;29;20066;-83
2022/11/17 11:06:20;;;;;;;6.47;1.47;;;10.40;99.90;;;;;;4917847;29;20083;-83
2022/11/17 11:09:09;;;;;;;4.45;1.83;;;10.40;99.90;;;;;;4940459;29;20299;-83
2022/11/17 11:11:53;;;;;;;2.67;1.20;;;10.40;99.90;;;;;;4940704;29;20863;-84
2022/11/17 11:14:40;;;;;;;3.33;1.27;;;10.40;99.90;;;;;;4923843;29;20408;-83
2022/11/17 11:17:14;;;;;;;4.78;1.40;;;10.40;99.90;;;;;;4955393;29;20396;-81
2022/11/17 11:19:49;;;;;;;4.85;1.30;;;10.40;99.90;;;;;;4938804;29;20047;-82
2022/11/17 11:22:41;;;;;;;3.37;1.10;;;10.50;99.90;;;;;;4939559;29;20046;-82
2022/11/17 11:25:28;;;;;;;3.80;0.90;;;10.40;99.90;;;;;;4940522;29;20062;-82
2022/11/17 11:28:30;;;;;;;2.17;1.20;;;10.50;99.90;;;;;;4939451;29;20058;-82
2022/11/17 11:31:21;;;;;;;3.38;1.38;;;10.50;99.90;;;;;;4956427;29;20499;-82
2022/11/17 11:34:14;;;;;;;3.83;1.40;;;10.50;99.90;;;;;;4955165;29;20525;-83
2022/11/17 11:36:42;;;;;;;4.15;1.13;;;10.50;99.90;;;;;;4946988;29;20051;-82
2022/11/17 11:39:49;;;;;;;1.55;0.73;;;10.50;99.90;;;;;;4938667;29;20604;-82
2022/11/17 11:42:36;;;;;;;4.38;1.13;;;10.50;99.90;;;;;;4940383;29;20051;-83
2022/11/17 11:45:20;;;;;;;3.33;1.30;;;10.50;99.90;;;;;;4931210;29;20047;-82
2022/11/17 11:47:55;;;;;;;3.70;1.20;;;10.60;99.90;;;;;;4939717;29;20073;-83
2022/11/17 11:50:29;;;;;;;6.03;1.38;;;10.60;99.90;;;;;;4939333;29;20054;-82
2022/11/17 11:53:15;;;;;;;5.13;1.10;;;10.60;99.90;;;;;;4961225;28;20060;-82
2022/11/17 11:55:45;;;;;;;3.35;1.27;;;10.60;99.90;;;;;;4939482;29;20154;-82
2022/11/17 11:58:23;;;;;;;3.42;1.35;;;10.60;99.90;;;;;;4957742;29;20118;-82
2022/11/17 12:00:55;;;;;;;4.75;1.25;;;10.50;99.90;;;;;;4915653;29;20062;-83
2022/11/17 12:03:28;;;;;;;1.30;0.90;;;10.50;99.90;;;;;;4941974;29;20054;-82
2022/11/17 12:09:25;;;;;;;3.65;1.20;;;10.40;99.90;;;;;;4963556;28;20063;-82
2022/11/17 12:12:01;;;;;;;2.92;1.00;;;10.40;99.90;;;;;;4933648;29;20051;-82
2022/11/17 12:14:36;;;;;;;5.00;1.30;;;10.50;99.90;;;;;;4926442;29;20039;-82
2022/11/17 12:17:03;;;;;;;4.30;1.10;;;10.90;99.90;;;;;;4945839;29;20381;-83
2022/11/17 12:19:52;;;;;;;1.73;0.70;;;10.40;99.90;;;;;;4938279;29;20094;-83
2022/11/17 12:22:33;;;;;;;5.40;1.20;;;10.40;99.90;;;;;;4955844;29;20508;-83
2022/11/17 12:25:14;;;;;;;4.15;1.20;;;10.40;99.90;;;;;;4931864;29;20131;-83
2022/11/17 12:27:41;;;;;;;5.22;1.20;;;10.40;99.90;;;;;;4938272;29;20514;-83
2022/11/17 12:30:27;;;;;;;4.88;1.42;;;10.40;99.90;;;;;;4938401;29;20077;-83
2022/11/17 12:32:54;;;;;;;5.60;1.30;;;10.40;99.90;;;;;;4947381;29;21088;-83
2022/11/17 12:35:28;;;;;;;4.22;1.20;;;10.40;99.90;;;;;;4955577;29;20039;-83
2022/11/17 12:38:14;;;;;;;3.03;0.93;;;10.40;99.90;;;;;;4931526;29;20488;-83
2022/11/17 12:40:50;;;;;;;6.97;1.10;;;10.30;99.90;;;;;;4940356;29;20043;-83
2022/11/17 12:43:18;;;;;;;3.75;0.95;;;10.30;99.90;;;;;;4955408;29;20051;-83
2022/11/17 12:46:23;;;;;;;5.15;1.02;;;10.30;99.90;;;;;;4940255;29;20049;-84
2022/11/17 12:49:05;;;;;;;3.47;1.15;;;10.40;99.90;;;;;;4940361;29;20046;-83
2022/11/17 12:51:38;;;;;;;6.35;1.50;;;10.40;99.90;;;;;;4938551;29;20551;-84
2022/11/17 12:54:36;;;;;;;3.65;0.90;;;10.40;99.90;;;;;;4938560;29;20515;-83
2022/11/17 12:57:27;;;;;;;4.32;1.40;;;10.40;99.90;;;;;;4940228;29;20074;-84
2022/11/17 13:00:08;;;;;;;5.75;1.15;;;10.40;99.90;;;;;;4939753;29;20130;-84
2022/11/17 13:03:09;;;;;;;2.35;1.17;;;10.40;99.90;;;;;;4954891;29;20089;-83
2022/11/17 13:05:36;;;;;;;5.43;1.65;;;10.30;99.90;;;;;;4954811;29;20053;-83
2022/11/17 13:08:22;;;;;;;5.07;1.50;;;10.40;99.90;;;;;;4914312;29;20059;-83
2022/11/17 13:10:49;;;;;;;4.93;1.52;;;10.40;99.90;;;;;;4939499;29;20109;-83
2022/11/17 13:13:23;;;;;;;5.22;1.35;;;10.40;99.90;;;;;;4954151;29;20043;-83
2022/11/17 13:16:00;;;;;;;3.40;1.35;;;10.40;99.90;;;;;;4937791;29;20496;-83
2022/11/17 13:18:38;;;;;;;4.15;1.38;;;10.50;99.90;;;;;;4961562;28;20035;-82
2022/11/17 13:21:31;;;;;;;4.70;1.50;;;10.40;99.90;;;;;;4936238;29;20043;-83
2022/11/17 13:23:58;;;;;;;5.38;1.20;;;10.40;99.90;;;;;;4937900;29;20110;-82
2022/11/17 13:26:26;;;;;;;3.80;1.27;;;10.40;99.90;;;;;;4937777;29;20051;-82
2022/11/17 13:29:07;;;;;;;4.72;1.50;;;10.50;99.90;;;;;;4936366;29;20050;-82
2022/11/17 13:31:33;;;;;;;2.97;1.20;;;10.50;99.90;;;;;;4937178;29;20134;-82
2022/11/17 13:34:05;;;;;;;3.72;1.33;;;10.50;99.90;;;;;;4938440;29;20043;-82
2022/11/17 13:36:31;;;;;;;7.55;1.52;;;10.60;99.90;;;;;;4937604;29;20031;-83
2022/11/17 13:38:59;;;;;;;5.03;1.35;;;10.50;99.90;;;;;;4936650;29;20031;-83
2022/11/17 13:41:27;;;;;;;4.00;1.52;;;10.60;99.90;;;;;;4921767;29;20122;-83
2022/11/17 13:43:54;;;;;;;2.70;1.10;;;10.60;99.90;;;;;;4939329;29;20051;-82
2022/11/17 13:46:20;;;;;;;2.80;0.90;;;10.60;99.90;;;;;;4939751;29;20146;-82